sensor_id;sensor_type;location;lat;lon;timestamp;P1;durP1;ratioP1;P2;durP2;ratioP2
55210;SDS011;41082;52.822;6.666;2023-09-07T00:01:19;3.53;;;1.75;;
55210;SDS011;41082;52.822;6.666;2023-09-07T00:03:44;1.85;;;1.15;;
55210;SDS011;41082;52.822;6.666;2023-09-07T00:06:10;3.92;;;2.22;;
55210;SDS011;41082;52.822;6.666;2023-09-07T00:08:36;2.30;;;1.52;;
55210;SDS011;41082;52.822;6.666;2023-09-07T00:11:08;3.25;;;1.77;;
55210;SDS011;41082;52.822;6.666;2023-09-07T00:13:37;4.40;;;1.70;;
55210;SDS011;41082;52.822;6.666;2023-09-07T00:16:03;3.83;;;1.55;;
55210;SDS011;41082;52.822;6.666;2023-09-07T00:18:30;3.35;;;1.42;;
55210;SDS011;41082;52.822;6.666;2023-09-07T00:20:56;4.00;;;1.50;;
55210;SDS011;41082;52.822;6.666;2023-09-07T00:23:21;4.97;;;1.60;;
55210;SDS011;41082;52.822;6.666;2023-09-07T00:25:47;2.50;;;1.50;;
55210;SDS011;41082;52.822;6.666;2023-09-07T00:28:13;4.75;;;2.08;;
55210;SDS011;41082;52.822;6.666;2023-09-07T00:30:39;4.45;;;1.75;;
55210;SDS011;41082;52.822;6.666;2023-09-07T00:33:05;2.20;;;1.60;;
55210;SDS011;41082;52.822;6.666;2023-09-07T00:35:33;2.63;;;1.63;;
55210;SDS011;41082;52.822;6.666;2023-09-07T00:37:59;8.07;;;1.92;;
55210;SDS011;41082;52.822;6.666;2023-09-07T00:40:25;3.58;;;1.90;;
55210;SDS011;41082;52.822;6.666;2023-09-07T00:42:51;3.30;;;2.05;;
55210;SDS011;41082;52.822;6.666;2023-09-07T00:45:17;3.00;;;1.83;;
55210;SDS011;41082;52.822;6.666;2023-09-07T00:47:43;4.53;;;2.03;;
55210;SDS011;41082;52.822;6.666;2023-09-07T00:50:09;3.13;;;2.13;;
55210;SDS011;41082;52.822;6.666;2023-09-07T00:52:38;3.63;;;1.90;;
55210;SDS011;41082;52.822;6.666;2023-09-07T00:55:07;3.92;;;2.17;;
55210;SDS011;41082;52.822;6.666;2023-09-07T00:57:33;4.53;;;2.58;;
55210;SDS011;41082;52.822;6.666;2023-09-07T00:59:59;1.73;;;1.58;;
55210;SDS011;41082;52.822;6.666;2023-09-07T01:02:25;4.70;;;1.67;;
55210;SDS011;41082;52.822;6.666;2023-09-07T01:04:51;3.97;;;2.00;;
55210;SDS011;41082;52.822;6.666;2023-09-07T01:07:19;2.42;;;1.85;;
55210;SDS011;41082;52.822;6.666;2023-09-07T01:09:51;3.13;;;1.88;;
55210;SDS011;41082;52.822;6.666;2023-09-07T01:12:21;2.72;;;1.90;;
55210;SDS011;41082;52.822;6.666;2023-09-07T01:14:46;2.40;;;1.90;;
55210;SDS011;41082;52.822;6.666;2023-09-07T01:17:12;5.18;;;2.00;;
55210;SDS011;41082;52.822;6.666;2023-09-07T01:19:38;2.83;;;1.88;;
55210;SDS011;41082;52.822;6.666;2023-09-07T01:22:06;3.28;;;2.00;;
55210;SDS011;41082;52.822;6.666;2023-09-07T01:24:33;6.15;;;2.10;;
55210;SDS011;41082;52.822;6.666;2023-09-07T01:27:01;4.07;;;1.90;;
55210;SDS011;41082;52.822;6.666;2023-09-07T01:29:28;3.33;;;1.80;;
55210;SDS011;41082;52.822;6.666;2023-09-07T01:31:55;4.43;;;1.88;;
55210;SDS011;41082;52.822;6.666;2023-09-07T01:34:22;4.22;;;2.10;;
55210;SDS011;41082;52.822;6.666;2023-09-07T01:36:48;3.47;;;2.10;;
55210;SDS011;41082;52.822;6.666;2023-09-07T01:39:14;5.13;;;1.95;;
55210;SDS011;41082;52.822;6.666;2023-09-07T01:41:39;5.07;;;2.08;;
55210;SDS011;41082;52.822;6.666;2023-09-07T01:44:05;3.10;;;1.85;;
55210;SDS011;41082;52.822;6.666;2023-09-07T01:46:30;6.40;;;2.40;;
55210;SDS011;41082;52.822;6.666;2023-09-07T01:48:56;3.53;;;2.35;;
55210;SDS011;41082;52.822;6.666;2023-09-07T01:51:21;3.05;;;2.60;;
55210;SDS011;41082;52.822;6.666;2023-09-07T01:53:47;2.88;;;2.17;;
55210;SDS011;41082;52.822;6.666;2023-09-07T01:56:16;4.32;;;2.20;;
55210;SDS011;41082;52.822;6.666;2023-09-07T01:58:42;5.05;;;2.45;;
55210;SDS011;41082;52.822;6.666;2023-09-07T02:01:19;6.63;;;2.38;;
55210;SDS011;41082;52.822;6.666;2023-09-07T02:03:45;5.00;;;2.28;;
55210;SDS011;41082;52.822;6.666;2023-09-07T02:06:11;3.40;;;2.30;;
55210;SDS011;41082;52.822;6.666;2023-09-07T02:08:36;5.47;;;2.30;;
55210;SDS011;41082;52.822;6.666;2023-09-07T02:11:02;2.70;;;2.30;;
55210;SDS011;41082;52.822;6.666;2023-09-07T02:13:27;3.08;;;2.40;;
55210;SDS011;41082;52.822;6.666;2023-09-07T02:15:53;3.15;;;2.17;;
55210;SDS011;41082;52.822;6.666;2023-09-07T02:18:19;3.83;;;2.50;;
55210;SDS011;41082;52.822;6.666;2023-09-07T02:20:44;3.42;;;2.40;;
55210;SDS011;41082;52.822;6.666;2023-09-07T02:23:10;6.45;;;2.35;;
55210;SDS011;41082;52.822;6.666;2023-09-07T02:25:35;4.45;;;2.20;;
55210;SDS011;41082;52.822;6.666;2023-09-07T02:28:01;4.20;;;2.47;;
55210;SDS011;41082;52.822;6.666;2023-09-07T02:30:27;3.30;;;2.33;;
55210;SDS011;41082;52.822;6.666;2023-09-07T02:32:52;3.67;;;2.33;;
55210;SDS011;41082;52.822;6.666;2023-09-07T02:35:18;4.47;;;2.70;;
55210;SDS011;41082;52.822;6.666;2023-09-07T02:37:44;4.68;;;2.88;;
55210;SDS011;41082;52.822;6.666;2023-09-07T02:40:09;3.63;;;2.72;;
55210;SDS011;41082;52.822;6.666;2023-09-07T02:42:35;4.93;;;2.70;;
55210;SDS011;41082;52.822;6.666;2023-09-07T02:45:01;4.88;;;2.58;;
55210;SDS011;41082;52.822;6.666;2023-09-07T02:47:26;2.80;;;2.30;;
55210;SDS011;41082;52.822;6.666;2023-09-07T02:49:52;3.72;;;2.72;;
55210;SDS011;41082;52.822;6.666;2023-09-07T02:52:17;5.03;;;2.85;;
55210;SDS011;41082;52.822;6.666;2023-09-07T02:54:43;3.72;;;2.42;;
55210;SDS011;41082;52.822;6.666;2023-09-07T02:57:09;2.85;;;2.28;;
55210;SDS011;41082;52.822;6.666;2023-09-07T02:59:34;3.83;;;2.80;;
55210;SDS011;41082;52.822;6.666;2023-09-07T03:02:00;3.95;;;2.53;;
55210;SDS011;41082;52.822;6.666;2023-09-07T03:04:26;5.03;;;2.90;;
55210;SDS011;41082;52.822;6.666;2023-09-07T03:06:51;3.72;;;2.13;;
55210;SDS011;41082;52.822;6.666;2023-09-07T03:09:17;3.60;;;2.38;;
55210;SDS011;41082;52.822;6.666;2023-09-07T03:11:42;3.53;;;2.28;;
55210;SDS011;41082;52.822;6.666;2023-09-07T03:14:08;5.40;;;3.15;;
55210;SDS011;41082;52.822;6.666;2023-09-07T03:16:33;2.95;;;2.08;;
55210;SDS011;41082;52.822;6.666;2023-09-07T03:18:59;6.40;;;2.63;;
55210;SDS011;41082;52.822;6.666;2023-09-07T03:21:24;4.97;;;2.28;;
55210;SDS011;41082;52.822;6.666;2023-09-07T03:23:54;3.30;;;2.33;;
55210;SDS011;41082;52.822;6.666;2023-09-07T03:26:23;5.53;;;2.75;;
55210;SDS011;41082;52.822;6.666;2023-09-07T03:28:49;3.85;;;2.40;;
55210;SDS011;41082;52.822;6.666;2023-09-07T03:31:15;4.10;;;2.22;;
55210;SDS011;41082;52.822;6.666;2023-09-07T03:33:40;3.80;;;2.47;;
55210;SDS011;41082;52.822;6.666;2023-09-07T03:36:06;5.32;;;2.95;;
55210;SDS011;41082;52.822;6.666;2023-09-07T03:38:31;4.30;;;2.35;;
55210;SDS011;41082;52.822;6.666;2023-09-07T03:40:57;3.00;;;2.50;;
55210;SDS011;41082;52.822;6.666;2023-09-07T03:43:22;4.00;;;2.53;;
55210;SDS011;41082;52.822;6.666;2023-09-07T03:45:48;3.03;;;2.60;;
55210;SDS011;41082;52.822;6.666;2023-09-07T03:48:14;5.47;;;2.67;;
55210;SDS011;41082;52.822;6.666;2023-09-07T03:50:40;5.13;;;2.80;;
55210;SDS011;41082;52.822;6.666;2023-09-07T03:53:05;4.68;;;2.58;;
55210;SDS011;41082;52.822;6.666;2023-09-07T03:55:39;4.78;;;2.58;;
55210;SDS011;41082;52.822;6.666;2023-09-07T03:58:06;3.53;;;2.65;;
55210;SDS011;41082;52.822;6.666;2023-09-07T04:00:32;5.00;;;3.10;;
55210;SDS011;41082;52.822;6.666;2023-09-07T04:02:58;3.25;;;2.95;;
55210;SDS011;41082;52.822;6.666;2023-09-07T04:05:23;5.57;;;2.83;;
55210;SDS011;41082;52.822;6.666;2023-09-07T04:07:50;3.67;;;2.90;;
55210;SDS011;41082;52.822;6.666;2023-09-07T04:10:15;3.95;;;3.10;;
55210;SDS011;41082;52.822;6.666;2023-09-07T04:12:41;5.03;;;2.70;;
55210;SDS011;41082;52.822;6.666;2023-09-07T04:15:07;5.70;;;3.55;;
55210;SDS011;41082;52.822;6.666;2023-09-07T04:17:33;7.50;;;3.42;;
55210;SDS011;41082;52.822;6.666;2023-09-07T04:20:05;8.07;;;3.70;;
55210;SDS011;41082;52.822;6.666;2023-09-07T04:22:32;7.45;;;3.47;;
55210;SDS011;41082;52.822;6.666;2023-09-07T04:24:57;8.32;;;3.47;;
55210;SDS011;41082;52.822;6.666;2023-09-07T04:27:23;4.72;;;3.47;;
55210;SDS011;41082;52.822;6.666;2023-09-07T04:29:48;4.35;;;3.55;;
55210;SDS011;41082;52.822;6.666;2023-09-07T04:32:15;4.18;;;3.58;;
55210;SDS011;41082;52.822;6.666;2023-09-07T04:34:40;4.10;;;3.50;;
55210;SDS011;41082;52.822;6.666;2023-09-07T04:37:06;4.18;;;3.60;;
55210;SDS011;41082;52.822;6.666;2023-09-07T04:39:31;5.35;;;3.50;;
55210;SDS011;41082;52.822;6.666;2023-09-07T04:41:57;7.18;;;4.03;;
55210;SDS011;41082;52.822;6.666;2023-09-07T04:44:22;4.55;;;3.50;;
55210;SDS011;41082;52.822;6.666;2023-09-07T04:46:48;5.43;;;3.72;;
55210;SDS011;41082;52.822;6.666;2023-09-07T04:49:15;5.63;;;3.83;;
55210;SDS011;41082;52.822;6.666;2023-09-07T04:51:40;5.18;;;4.07;;
55210;SDS011;41082;52.822;6.666;2023-09-07T04:54:06;5.43;;;3.65;;
55210;SDS011;41082;52.822;6.666;2023-09-07T04:56:31;5.47;;;3.55;;
55210;SDS011;41082;52.822;6.666;2023-09-07T04:58:57;6.63;;;3.88;;
55210;SDS011;41082;52.822;6.666;2023-09-07T05:01:22;6.45;;;3.70;;
55210;SDS011;41082;52.822;6.666;2023-09-07T05:03:49;4.90;;;4.10;;
55210;SDS011;41082;52.822;6.666;2023-09-07T05:06:16;4.82;;;4.43;;
55210;SDS011;41082;52.822;6.666;2023-09-07T05:08:41;4.63;;;3.65;;
55210;SDS011;41082;52.822;6.666;2023-09-07T05:11:07;4.65;;;3.83;;
55210;SDS011;41082;52.822;6.666;2023-09-07T05:13:33;6.65;;;4.05;;
55210;SDS011;41082;52.822;6.666;2023-09-07T05:15:58;5.32;;;4.47;;
55210;SDS011;41082;52.822;6.666;2023-09-07T05:20:55;6.20;;;4.55;;
55210;SDS011;41082;52.822;6.666;2023-09-07T05:23:21;6.10;;;4.30;;
55210;SDS011;41082;52.822;6.666;2023-09-07T05:28:15;4.97;;;4.25;;
55210;SDS011;41082;52.822;6.666;2023-09-07T05:30:41;7.60;;;4.95;;
55210;SDS011;41082;52.822;6.666;2023-09-07T05:33:09;4.85;;;4.35;;
55210;SDS011;41082;52.822;6.666;2023-09-07T05:35:35;4.80;;;4.10;;
55210;SDS011;41082;52.822;6.666;2023-09-07T05:38:01;4.75;;;4.32;;
55210;SDS011;41082;52.822;6.666;2023-09-07T05:40:27;6.47;;;4.78;;
55210;SDS011;41082;52.822;6.666;2023-09-07T05:42:53;5.75;;;4.50;;
55210;SDS011;41082;52.822;6.666;2023-09-07T05:45:18;7.30;;;4.78;;
55210;SDS011;41082;52.822;6.666;2023-09-07T05:47:44;7.18;;;4.90;;
55210;SDS011;41082;52.822;6.666;2023-09-07T05:50:09;5.10;;;4.60;;
55210;SDS011;41082;52.822;6.666;2023-09-07T05:52:35;6.38;;;4.63;;
55210;SDS011;41082;52.822;6.666;2023-09-07T05:55:01;5.07;;;4.57;;
55210;SDS011;41082;52.822;6.666;2023-09-07T05:57:27;7.85;;;4.97;;
55210;SDS011;41082;52.822;6.666;2023-09-07T05:59:53;5.47;;;4.97;;
55210;SDS011;41082;52.822;6.666;2023-09-07T06:02:18;6.45;;;5.00;;
55210;SDS011;41082;52.822;6.666;2023-09-07T06:04:44;6.57;;;5.25;;
55210;SDS011;41082;52.822;6.666;2023-09-07T06:07:09;6.22;;;5.15;;
55210;SDS011;41082;52.822;6.666;2023-09-07T06:09:35;5.72;;;5.03;;
55210;SDS011;41082;52.822;6.666;2023-09-07T06:12:02;6.43;;;5.80;;
55210;SDS011;41082;52.822;6.666;2023-09-07T06:14:30;5.82;;;5.28;;
55210;SDS011;41082;52.822;6.666;2023-09-07T06:16:55;6.55;;;5.35;;
55210;SDS011;41082;52.822;6.666;2023-09-07T06:19:21;9.02;;;6.13;;
55210;SDS011;41082;52.822;6.666;2023-09-07T06:21:46;6.40;;;5.75;;
55210;SDS011;41082;52.822;6.666;2023-09-07T06:24:12;6.38;;;5.78;;
55210;SDS011;41082;52.822;6.666;2023-09-07T06:26:38;8.98;;;5.90;;
55210;SDS011;41082;52.822;6.666;2023-09-07T06:29:04;7.85;;;6.07;;
55210;SDS011;41082;52.822;6.666;2023-09-07T06:31:29;7.53;;;5.93;;
55210;SDS011;41082;52.822;6.666;2023-09-07T06:33:55;6.18;;;5.53;;
55210;SDS011;41082;52.822;6.666;2023-09-07T06:36:20;8.43;;;6.07;;
55210;SDS011;41082;52.822;6.666;2023-09-07T06:38:46;7.65;;;5.28;;
55210;SDS011;41082;52.822;6.666;2023-09-07T06:41:12;6.68;;;5.75;;
55210;SDS011;41082;52.822;6.666;2023-09-07T06:43:37;6.82;;;6.13;;
55210;SDS011;41082;52.822;6.666;2023-09-07T06:46:06;7.45;;;5.68;;
55210;SDS011;41082;52.822;6.666;2023-09-07T06:48:33;6.68;;;5.03;;
55210;SDS011;41082;52.822;6.666;2023-09-07T06:51:02;5.70;;;4.72;;
55210;SDS011;41082;52.822;6.666;2023-09-07T06:53:29;5.65;;;4.93;;
55210;SDS011;41082;52.822;6.666;2023-09-07T06:55:58;7.32;;;5.47;;
55210;SDS011;41082;52.822;6.666;2023-09-07T06:58:24;5.60;;;5.00;;
55210;SDS011;41082;52.822;6.666;2023-09-07T07:00:50;7.20;;;5.97;;
55210;SDS011;41082;52.822;6.666;2023-09-07T07:03:15;5.97;;;5.13;;
55210;SDS011;41082;52.822;6.666;2023-09-07T07:05:41;7.25;;;5.95;;
55210;SDS011;41082;52.822;6.666;2023-09-07T07:08:07;6.60;;;5.70;;
55210;SDS011;41082;52.822;6.666;2023-09-07T07:10:34;8.40;;;6.07;;
55210;SDS011;41082;52.822;6.666;2023-09-07T07:12:59;7.20;;;5.50;;
55210;SDS011;41082;52.822;6.666;2023-09-07T07:15:25;6.50;;;5.80;;
55210;SDS011;41082;52.822;6.666;2023-09-07T07:17:51;6.45;;;5.85;;
55210;SDS011;41082;52.822;6.666;2023-09-07T07:20:16;6.53;;;5.88;;
55210;SDS011;41082;52.822;6.666;2023-09-07T07:22:42;6.63;;;6.00;;
55210;SDS011;41082;52.822;6.666;2023-09-07T07:25:07;6.35;;;5.43;;
55210;SDS011;41082;52.822;6.666;2023-09-07T07:27:33;6.63;;;6.03;;
55210;SDS011;41082;52.822;6.666;2023-09-07T07:29:59;7.38;;;5.68;;
55210;SDS011;41082;52.822;6.666;2023-09-07T07:32:24;6.88;;;5.50;;
55210;SDS011;41082;52.822;6.666;2023-09-07T07:34:50;6.10;;;5.50;;
55210;SDS011;41082;52.822;6.666;2023-09-07T07:37:16;8.52;;;5.68;;
55210;SDS011;41082;52.822;6.666;2023-09-07T07:39:41;7.53;;;5.80;;
55210;SDS011;41082;52.822;6.666;2023-09-07T07:42:07;12.45;;;5.82;;
55210;SDS011;41082;52.822;6.666;2023-09-07T07:44:32;5.97;;;5.25;;
55210;SDS011;41082;52.822;6.666;2023-09-07T07:46:58;7.43;;;5.28;;
55210;SDS011;41082;52.822;6.666;2023-09-07T07:49:24;7.05;;;4.93;;
55210;SDS011;41082;52.822;6.666;2023-09-07T07:51:49;5.35;;;4.65;;
55210;SDS011;41082;52.822;6.666;2023-09-07T07:54:16;6.22;;;4.88;;
55210;SDS011;41082;52.822;6.666;2023-09-07T07:56:42;5.43;;;4.75;;
55210;SDS011;41082;52.822;6.666;2023-09-07T07:59:07;7.38;;;4.80;;
55210;SDS011;41082;52.822;6.666;2023-09-07T08:01:33;5.05;;;4.55;;
55210;SDS011;41082;52.822;6.666;2023-09-07T08:03:58;6.43;;;4.53;;
55210;SDS011;41082;52.822;6.666;2023-09-07T08:06:24;6.40;;;4.60;;
55210;SDS011;41082;52.822;6.666;2023-09-07T08:08:50;4.78;;;4.20;;
55210;SDS011;41082;52.822;6.666;2023-09-07T08:11:15;4.43;;;4.03;;
55210;SDS011;41082;52.822;6.666;2023-09-07T08:13:41;4.70;;;4.18;;
55210;SDS011;41082;52.822;6.666;2023-09-07T08:16:10;5.05;;;4.47;;
55210;SDS011;41082;52.822;6.666;2023-09-07T08:18:36;5.43;;;4.35;;
55210;SDS011;41082;52.822;6.666;2023-09-07T08:21:01;5.60;;;4.07;;
55210;SDS011;41082;52.822;6.666;2023-09-07T08:23:27;4.30;;;3.90;;
55210;SDS011;41082;52.822;6.666;2023-09-07T08:25:53;5.78;;;4.50;;
55210;SDS011;41082;52.822;6.666;2023-09-07T08:28:19;4.93;;;4.10;;
55210;SDS011;41082;52.822;6.666;2023-09-07T08:30:49;6.95;;;3.95;;
55210;SDS011;41082;52.822;6.666;2023-09-07T08:33:18;6.50;;;4.25;;
55210;SDS011;41082;52.822;6.666;2023-09-07T08:35:44;7.25;;;3.92;;
55210;SDS011;41082;52.822;6.666;2023-09-07T08:38:10;6.00;;;3.97;;
55210;SDS011;41082;52.822;6.666;2023-09-07T08:40:37;3.63;;;3.33;;
55210;SDS011;41082;52.822;6.666;2023-09-07T08:43:05;5.13;;;3.53;;
55210;SDS011;41082;52.822;6.666;2023-09-07T08:45:37;5.65;;;4.32;;
55210;SDS011;41082;52.822;6.666;2023-09-07T08:48:08;4.97;;;3.45;;
55210;SDS011;41082;52.822;6.666;2023-09-07T08:50:35;8.85;;;3.67;;
55210;SDS011;41082;52.822;6.666;2023-09-07T08:53:03;7.35;;;3.88;;
55210;SDS011;41082;52.822;6.666;2023-09-07T08:55:29;7.68;;;3.97;;
55210;SDS011;41082;52.822;6.666;2023-09-07T08:57:55;5.45;;;3.90;;
55210;SDS011;41082;52.822;6.666;2023-09-07T09:00:21;4.95;;;3.80;;
55210;SDS011;41082;52.822;6.666;2023-09-07T09:02:48;4.35;;;3.53;;
55210;SDS011;41082;52.822;6.666;2023-09-07T09:05:14;5.30;;;3.92;;
55210;SDS011;41082;52.822;6.666;2023-09-07T09:07:40;3.97;;;3.58;;
55210;SDS011;41082;52.822;6.666;2023-09-07T09:10:06;5.40;;;3.58;;
55210;SDS011;41082;52.822;6.666;2023-09-07T09:12:33;6.93;;;3.25;;
55210;SDS011;41082;52.822;6.666;2023-09-07T09:14:59;5.85;;;3.42;;
55210;SDS011;41082;52.822;6.666;2023-09-07T09:17:28;4.25;;;3.08;;
55210;SDS011;41082;52.822;6.666;2023-09-07T09:19:54;4.13;;;3.10;;
55210;SDS011;41082;52.822;6.666;2023-09-07T09:22:20;3.67;;;2.90;;
55210;SDS011;41082;52.822;6.666;2023-09-07T09:24:49;3.30;;;3.00;;
55210;SDS011;41082;52.822;6.666;2023-09-07T09:27:15;11.90;;;3.50;;
55210;SDS011;41082;52.822;6.666;2023-09-07T09:29:41;6.85;;;3.03;;
55210;SDS011;41082;52.822;6.666;2023-09-07T09:32:07;7.03;;;3.10;;
55210;SDS011;41082;52.822;6.666;2023-09-07T09:34:36;3.70;;;2.80;;
55210;SDS011;41082;52.822;6.666;2023-09-07T09:37:02;7.88;;;3.15;;
55210;SDS011;41082;52.822;6.666;2023-09-07T09:39:29;4.82;;;2.95;;
55210;SDS011;41082;52.822;6.666;2023-09-07T09:41:55;4.30;;;2.67;;
55210;SDS011;41082;52.822;6.666;2023-09-07T09:44:21;4.43;;;2.60;;
55210;SDS011;41082;52.822;6.666;2023-09-07T09:46:53;4.35;;;2.67;;
55210;SDS011;41082;52.822;6.666;2023-09-07T09:49:21;5.75;;;2.90;;
55210;SDS011;41082;52.822;6.666;2023-09-07T09:51:48;4.75;;;2.63;;
55210;SDS011;41082;52.822;6.666;2023-09-07T09:54:16;3.85;;;2.58;;
55210;SDS011;41082;52.822;6.666;2023-09-07T09:56:43;5.53;;;2.30;;
55210;SDS011;41082;52.822;6.666;2023-09-07T09:59:09;4.40;;;2.50;;
55210;SDS011;41082;52.822;6.666;2023-09-07T10:01:39;3.50;;;2.70;;
55210;SDS011;41082;52.822;6.666;2023-09-07T10:04:14;3.53;;;2.33;;
55210;SDS011;41082;52.822;6.666;2023-09-07T10:09:40;3.20;;;2.42;;
55210;SDS011;41082;52.822;6.666;2023-09-07T10:12:11;3.72;;;2.90;;
55210;SDS011;41082;52.822;6.666;2023-09-07T10:14:37;2.95;;;2.35;;
55210;SDS011;41082;52.822;6.666;2023-09-07T10:17:04;4.80;;;3.05;;
55210;SDS011;41082;52.822;6.666;2023-09-07T10:19:30;5.38;;;2.67;;
55210;SDS011;41082;52.822;6.666;2023-09-07T10:21:57;2.67;;;2.25;;
55210;SDS011;41082;52.822;6.666;2023-09-07T10:24:23;4.40;;;2.50;;
55210;SDS011;41082;52.822;6.666;2023-09-07T10:27:00;5.40;;;3.30;;
55210;SDS011;41082;52.822;6.666;2023-09-07T10:29:27;3.00;;;2.50;;
55210;SDS011;41082;52.822;6.666;2023-09-07T10:31:53;4.03;;;2.63;;
55210;SDS011;41082;52.822;6.666;2023-09-07T10:34:18;6.47;;;2.42;;
55210;SDS011;41082;52.822;6.666;2023-09-07T10:36:44;3.05;;;2.70;;
55210;SDS011;41082;52.822;6.666;2023-09-07T10:39:11;4.03;;;2.40;;
55210;SDS011;41082;52.822;6.666;2023-09-07T10:41:41;4.53;;;2.33;;
55210;SDS011;41082;52.822;6.666;2023-09-07T10:44:07;3.20;;;2.25;;
55210;SDS011;41082;52.822;6.666;2023-09-07T10:46:33;6.45;;;2.72;;
55210;SDS011;41082;52.822;6.666;2023-09-07T10:48:59;4.93;;;2.80;;
55210;SDS011;41082;52.822;6.666;2023-09-07T10:51:24;5.05;;;2.60;;
55210;SDS011;41082;52.822;6.666;2023-09-07T10:53:50;3.85;;;2.40;;
55210;SDS011;41082;52.822;6.666;2023-09-07T10:56:15;11.05;;;2.53;;
55210;SDS011;41082;52.822;6.666;2023-09-07T10:58:41;4.43;;;2.78;;
55210;SDS011;41082;52.822;6.666;2023-09-07T11:01:09;4.82;;;2.17;;
55210;SDS011;41082;52.822;6.666;2023-09-07T11:03:35;4.55;;;2.92;;
55210;SDS011;41082;52.822;6.666;2023-09-07T11:08:33;4.53;;;2.63;;
55210;SDS011;41082;52.822;6.666;2023-09-07T11:11:00;6.20;;;2.50;;
55210;SDS011;41082;52.822;6.666;2023-09-07T11:13:28;3.97;;;2.70;;
55210;SDS011;41082;52.822;6.666;2023-09-07T11:15:55;3.42;;;2.70;;
55210;SDS011;41082;52.822;6.666;2023-09-07T11:18:22;4.15;;;2.60;;
55210;SDS011;41082;52.822;6.666;2023-09-07T11:20:49;3.58;;;2.20;;
55210;SDS011;41082;52.822;6.666;2023-09-07T11:23:19;5.22;;;2.70;;
55210;SDS011;41082;52.822;6.666;2023-09-07T11:25:49;4.00;;;2.50;;
55210;SDS011;41082;52.822;6.666;2023-09-07T11:28:16;5.50;;;2.92;;
55210;SDS011;41082;52.822;6.666;2023-09-07T11:30:55;7.55;;;2.53;;
55210;SDS011;41082;52.822;6.666;2023-09-07T11:33:24;5.00;;;2.05;;
55210;SDS011;41082;52.822;6.666;2023-09-07T11:35:50;3.15;;;2.25;;
55210;SDS011;41082;52.822;6.666;2023-09-07T11:38:17;3.80;;;2.22;;
55210;SDS011;41082;52.822;6.666;2023-09-07T11:40:43;5.80;;;2.58;;
55210;SDS011;41082;52.822;6.666;2023-09-07T11:43:13;4.18;;;2.38;;
55210;SDS011;41082;52.822;6.666;2023-09-07T11:48:06;5.45;;;2.35;;
55210;SDS011;41082;52.822;6.666;2023-09-07T11:50:34;22.00;;;4.22;;
55210;SDS011;41082;52.822;6.666;2023-09-07T11:53:00;20.95;;;3.75;;
55210;SDS011;41082;52.822;6.666;2023-09-07T11:55:26;8.55;;;3.42;;
55210;SDS011;41082;52.822;6.666;2023-09-07T11:57:51;5.78;;;2.00;;
55210;SDS011;41082;52.822;6.666;2023-09-07T12:00:17;3.70;;;2.35;;
55210;SDS011;41082;52.822;6.666;2023-09-07T12:02:43;2.67;;;2.05;;
55210;SDS011;41082;52.822;6.666;2023-09-07T12:05:09;2.78;;;2.00;;
55210;SDS011;41082;52.822;6.666;2023-09-07T12:07:35;5.50;;;2.10;;
55210;SDS011;41082;52.822;6.666;2023-09-07T12:10:01;4.75;;;2.08;;
55210;SDS011;41082;52.822;6.666;2023-09-07T12:12:27;7.15;;;2.15;;
55210;SDS011;41082;52.822;6.666;2023-09-07T12:14:53;3.80;;;2.28;;
55210;SDS011;41082;52.822;6.666;2023-09-07T12:17:21;6.50;;;2.53;;
55210;SDS011;41082;52.822;6.666;2023-09-07T12:19:47;4.85;;;2.20;;
55210;SDS011;41082;52.822;6.666;2023-09-07T12:22:14;4.05;;;2.47;;
55210;SDS011;41082;52.822;6.666;2023-09-07T12:24:39;2.90;;;2.28;;
55210;SDS011;41082;52.822;6.666;2023-09-07T12:27:05;6.22;;;2.72;;
55210;SDS011;41082;52.822;6.666;2023-09-07T12:29:31;3.88;;;2.38;;
55210;SDS011;41082;52.822;6.666;2023-09-07T12:31:56;4.80;;;2.25;;
55210;SDS011;41082;52.822;6.666;2023-09-07T12:34:22;6.93;;;2.40;;
55210;SDS011;41082;52.822;6.666;2023-09-07T12:36:48;5.13;;;2.30;;
55210;SDS011;41082;52.822;6.666;2023-09-07T12:39:14;4.10;;;2.33;;
55210;SDS011;41082;52.822;6.666;2023-09-07T12:41:39;4.88;;;2.00;;
55210;SDS011;41082;52.822;6.666;2023-09-07T12:44:05;4.93;;;2.30;;
55210;SDS011;41082;52.822;6.666;2023-09-07T12:46:31;3.20;;;2.30;;
55210;SDS011;41082;52.822;6.666;2023-09-07T12:48:57;3.08;;;2.38;;
55210;SDS011;41082;52.822;6.666;2023-09-07T12:51:23;5.30;;;2.05;;
55210;SDS011;41082;52.822;6.666;2023-09-07T12:53:48;2.75;;;2.15;;
55210;SDS011;41082;52.822;6.666;2023-09-07T12:56:14;3.67;;;2.20;;
55210;SDS011;41082;52.822;6.666;2023-09-07T12:58:41;4.20;;;2.42;;
55210;SDS011;41082;52.822;6.666;2023-09-07T13:01:06;7.55;;;2.38;;
55210;SDS011;41082;52.822;6.666;2023-09-07T13:03:35;3.30;;;2.25;;
55210;SDS011;41082;52.822;6.666;2023-09-07T13:06:02;5.43;;;2.40;;
55210;SDS011;41082;52.822;6.666;2023-09-07T13:08:28;4.82;;;2.42;;
55210;SDS011;41082;52.822;6.666;2023-09-07T13:10:54;3.25;;;2.20;;
55210;SDS011;41082;52.822;6.666;2023-09-07T13:13:20;4.60;;;2.30;;
55210;SDS011;41082;52.822;6.666;2023-09-07T13:15:47;3.92;;;2.15;;
55210;SDS011;41082;52.822;6.666;2023-09-07T13:18:13;4.15;;;2.28;;
55210;SDS011;41082;52.822;6.666;2023-09-07T13:20:38;3.53;;;2.50;;
55210;SDS011;41082;52.822;6.666;2023-09-07T13:23:04;4.75;;;2.60;;
55210;SDS011;41082;52.822;6.666;2023-09-07T13:25:31;7.05;;;2.20;;
55210;SDS011;41082;52.822;6.666;2023-09-07T13:27:57;2.58;;;2.25;;
55210;SDS011;41082;52.822;6.666;2023-09-07T13:30:22;4.32;;;2.50;;
55210;SDS011;41082;52.822;6.666;2023-09-07T13:32:48;2.85;;;2.15;;
55210;SDS011;41082;52.822;6.666;2023-09-07T13:35:15;3.92;;;2.50;;
55210;SDS011;41082;52.822;6.666;2023-09-07T13:37:40;7.03;;;3.08;;
55210;SDS011;41082;52.822;6.666;2023-09-07T13:40:06;2.40;;;2.20;;
55210;SDS011;41082;52.822;6.666;2023-09-07T13:42:33;5.10;;;2.08;;
55210;SDS011;41082;52.822;6.666;2023-09-07T13:44:58;3.88;;;1.83;;
55210;SDS011;41082;52.822;6.666;2023-09-07T13:47:24;3.83;;;2.35;;
55210;SDS011;41082;52.822;6.666;2023-09-07T13:49:50;3.95;;;2.33;;
55210;SDS011;41082;52.822;6.666;2023-09-07T13:52:15;5.03;;;2.25;;
55210;SDS011;41082;52.822;6.666;2023-09-07T13:54:41;2.80;;;2.03;;
55210;SDS011;41082;52.822;6.666;2023-09-07T13:57:06;3.58;;;2.33;;
55210;SDS011;41082;52.822;6.666;2023-09-07T13:59:33;4.55;;;2.05;;
55210;SDS011;41082;52.822;6.666;2023-09-07T14:02:00;3.53;;;1.70;;
55210;SDS011;41082;52.822;6.666;2023-09-07T14:04:26;4.30;;;2.00;;
55210;SDS011;41082;52.822;6.666;2023-09-07T14:06:52;4.85;;;1.85;;
55210;SDS011;41082;52.822;6.666;2023-09-07T14:09:17;3.47;;;2.35;;
55210;SDS011;41082;52.822;6.666;2023-09-07T14:11:43;3.58;;;2.20;;
55210;SDS011;41082;52.822;6.666;2023-09-07T14:14:10;3.88;;;2.05;;
55210;SDS011;41082;52.822;6.666;2023-09-07T14:16:35;3.53;;;2.15;;
55210;SDS011;41082;52.822;6.666;2023-09-07T14:19:01;2.30;;;1.80;;
55210;SDS011;41082;52.822;6.666;2023-09-07T14:21:27;4.18;;;2.13;;
55210;SDS011;41082;52.822;6.666;2023-09-07T14:23:52;2.35;;;2.05;;
55210;SDS011;41082;52.822;6.666;2023-09-07T14:26:18;3.63;;;2.20;;
55210;SDS011;41082;52.822;6.666;2023-09-07T14:28:43;2.65;;;1.90;;
55210;SDS011;41082;52.822;6.666;2023-09-07T14:31:09;4.05;;;2.10;;
55210;SDS011;41082;52.822;6.666;2023-09-07T14:33:35;5.68;;;1.90;;
55210;SDS011;41082;52.822;6.666;2023-09-07T14:36:06;3.97;;;2.25;;
55210;SDS011;41082;52.822;6.666;2023-09-07T14:38:32;2.22;;;2.00;;
55210;SDS011;41082;52.822;6.666;2023-09-07T14:41:04;3.45;;;2.15;;
55210;SDS011;41082;52.822;6.666;2023-09-07T14:43:30;4.18;;;2.10;;
55210;SDS011;41082;52.822;6.666;2023-09-07T14:45:56;3.15;;;2.10;;
55210;SDS011;41082;52.822;6.666;2023-09-07T14:48:21;5.32;;;2.63;;
55210;SDS011;41082;52.822;6.666;2023-09-07T14:50:47;4.00;;;2.30;;
55210;SDS011;41082;52.822;6.666;2023-09-07T14:53:13;4.07;;;1.85;;
55210;SDS011;41082;52.822;6.666;2023-09-07T14:55:38;2.40;;;2.20;;